Time;durP1;ratioP1;P1;durP2;ratioP2;P2;SDS_P1;SDS_P2;PMS_P1;PMS_P2;Temp;Humidity;BMP_temperature;BMP_pressure;BME280_temperature;BME280_humidity;BME280_pressure;Samples;Min_cycle;Max_cycle;Signal;HPM_P1;HPM_P2
2022/10/14 00:00:41;;;;;;;71.72;58.70;;;23.20;61.80;;;;;;4876987;54;20980;-27
2022/10/14 00:05:41;;;;;;;65.22;55.17;;;23.20;61.80;;;;;;4797115;54;21565;-29
2022/10/14 00:10:42;;;;;;;66.35;55.88;;;23.20;61.90;;;;;;4824928;54;21051;-32
2022/10/14 00:15:43;;;;;;;71.78;58.58;;;23.20;61.70;;;;;;4895318;54;21079;-36
2022/10/14 00:20:53;;;;;;;63.33;54.10;;;23.20;61.70;;;;;;4839997;54;21461;-26
2022/10/14 00:25:54;;;;;;;67.07;55.80;;;23.20;61.80;;;;;;4796560;58;21063;-33
2022/10/14 00:31:00;;;;;;;63.78;53.92;;;23.20;61.90;;;;;;4795263;58;21063;-29
2022/10/14 00:36:03;;;;;;;60.25;52.42;;;23.20;61.80;;;;;;4809323;54;21175;-37
2022/10/14 00:41:04;;;;;;;63.95;54.08;;;23.20;61.80;;;;;;4801132;54;21008;-27
2022/10/14 00:46:08;;;;;;;60.60;53.03;;;23.10;61.70;;;;;;4807946;54;21063;-28
2022/10/14 00:51:10;;;;;;;60.58;51.67;;;22.90;61.60;;;;;;4839956;54;21078;-35
2022/10/14 00:56:16;;;;;;;61.33;53.58;;;23.10;61.70;;;;;;4840246;54;21039;-26
2022/10/14 01:01:17;;;;;;;60.53;51.67;;;23.20;61.70;;;;;;4795652;58;21537;-35
2022/10/14 01:08:01;;;;;;;61.25;53.17;;;23.10;61.70;;;;;;4795443;58;21103;-38
2022/10/14 01:13:31;;;;;;;59.83;50.83;;;23.10;61.70;;;;;;4845143;54;21501;-26
2022/10/14 01:19:23;;;;;;;62.28;52.62;;;23.10;61.60;;;;;;4794777;55;20983;-38
2022/10/14 01:26:14;;;;;;;59.97;50.42;;;23.10;61.60;;;;;;4800996;54;21003;-30
2022/10/14 01:31:21;;;;;;;58.03;49.20;;;23.10;61.60;;;;;;4795338;58;21052;-30
2022/10/14 01:37:00;;;;;;;61.08;50.85;;;23.10;61.70;;;;;;4797478;54;21004;-31
2022/10/14 01:42:10;;;;;;;59.85;50.88;;;23.10;61.60;;;;;;4852078;54;21031;-31
2022/10/14 01:47:13;;;;;;;56.92;50.17;;;23.10;61.60;;;;;;4811424;54;20984;-36
2022/10/14 01:52:21;;;;;;;58.22;50.42;;;23.10;61.60;;;;;;4796774;54;21079;-37
2022/10/14 01:57:27;;;;;;;54.55;48.22;;;23.10;61.60;;;;;;4856097;54;21557;-37
2022/10/14 02:02:27;;;;;;;55.95;49.53;;;23.10;61.60;;;;;;4814969;54;21016;-46
2022/10/14 02:07:35;;;;;;;56.95;48.28;;;23.10;61.60;;;;;;4796145;54;21012;-28
2022/10/14 02:13:06;;;;;;;56.30;49.50;;;23.10;61.60;;;;;;4826115;54;21075;-38
2022/10/14 02:19:52;;;;;;;52.78;45.47;;;23.10;61.60;;;;;;4814907;54;21064;-38
2022/10/14 02:25:45;;;;;;;55.12;46.45;;;23.10;61.60;;;;;;4800153;54;21118;-42
2022/10/14 02:30:57;;;;;;;52.13;46.20;;;23.10;61.60;;;;;;4810844;54;20984;-46
2022/10/14 02:36:00;;;;;;;55.92;48.53;;;23.10;61.60;;;;;;4839327;54;21032;-26
2022/10/14 02:41:07;;;;;;;56.45;46.92;;;23.10;61.50;;;;;;4796227;54;21059;-38
2022/10/14 02:46:07;;;;;;;49.05;43.65;;;23.10;61.50;;;;;;4852632;54;21052;-28
2022/10/14 02:51:08;;;;;;;51.08;45.45;;;23.10;61.50;;;;;;4807201;54;21023;-37
2022/10/14 02:56:15;;;;;;;51.25;45.33;;;23.10;61.60;;;;;;4807466;54;21019;-25
2022/10/14 03:01:15;;;;;;;50.80;44.35;;;23.10;61.40;;;;;;4795755;58;20988;-44
2022/10/14 03:06:16;;;;;;;53.33;45.85;;;23.10;61.40;;;;;;4798623;54;21031;-37
2022/10/14 03:11:17;;;;;;;49.50;44.13;;;23.10;61.40;;;;;;4852459;54;21482;-37
2022/10/14 03:16:18;;;;;;;52.38;45.25;;;23.10;61.50;;;;;;4800788;54;21066;-28
2022/10/14 03:21:19;;;;;;;53.65;46.63;;;23.10;61.40;;;;;;4820058;54;21028;-33
2022/10/14 03:26:19;;;;;;;52.35;44.90;;;23.10;61.30;;;;;;4821936;54;21016;-37
2022/10/14 03:31:20;;;;;;;52.10;44.30;;;23.10;61.30;;;;;;4796349;54;21087;-34
2022/10/14 03:36:21;;;;;;;49.92;43.75;;;23.10;61.30;;;;;;4795433;54;21039;-27
2022/10/14 03:41:22;;;;;;;52.00;45.00;;;23.10;61.20;;;;;;4797779;54;21008;-41
2022/10/14 03:46:22;;;;;;;51.42;44.40;;;23.20;61.30;;;;;;4797792;54;21042;-40
2022/10/14 03:51:23;;;;;;;48.80;42.28;;;23.10;61.20;;;;;;4825766;54;21474;-25
2022/10/14 03:56:24;;;;;;;49.95;42.70;;;23.10;61.20;;;;;;4795446;58;21026;-32
2022/10/14 04:01:25;;;;;;;47.75;41.40;;;23.20;61.30;;;;;;4834352;54;21008;-39
2022/10/14 04:06:26;;;;;;;50.25;42.85;;;23.10;61.10;;;;;;4814467;54;21035;-28
2022/10/14 04:11:26;;;;;;;45.80;39.75;;;23.10;61.10;;;;;;4804247;54;21075;-37
2022/10/14 04:16:27;;;;;;;48.92;41.45;;;23.10;61.00;;;;;;4814667;54;21036;-38
2022/10/14 04:21:28;;;;;;;50.25;42.40;;;23.10;61.10;;;;;;4846330;54;21070;-31
2022/10/14 04:26:29;;;;;;;50.45;42.85;;;23.10;61.10;;;;;;4818836;54;21091;-27
2022/10/14 04:31:29;;;;;;;49.53;41.45;;;23.10;61.10;;;;;;4831204;54;21059;-32
2022/10/14 04:36:30;;;;;;;48.97;41.70;;;23.10;61.10;;;;;;4801252;54;21103;-28
2022/10/14 04:41:31;;;;;;;49.88;41.70;;;23.00;61.00;;;;;;4795879;55;21079;-33
2022/10/14 04:46:32;;;;;;;46.67;39.80;;;23.10;61.10;;;;;;4812682;54;21458;-39
2022/10/14 04:51:33;;;;;;;49.08;40.58;;;23.10;61.00;;;;;;4795235;58;21584;-28
2022/10/14 04:56:33;;;;;;;50.65;41.80;;;23.00;61.00;;;;;;4846830;54;21111;-32
2022/10/14 05:01:34;;;;;;;48.90;40.97;;;23.00;61.00;;;;;;4802482;54;20992;-25
2022/10/14 05:06:36;;;;;;;47.80;40.20;;;23.00;61.00;;;;;;4818608;54;21071;-33
2022/10/14 05:11:37;;;;;;;50.92;42.95;;;23.00;61.00;;;;;;4795337;58;21036;-37
2022/10/14 05:16:38;;;;;;;50.30;41.13;;;23.00;61.00;;;;;;4841828;54;21011;-35
2022/10/14 05:21:38;;;;;;;49.38;40.63;;;23.10;61.00;;;;;;4807098;54;21525;-30
2022/10/14 05:26:39;;;;;;;48.42;40.58;;;23.00;61.20;;;;;;4796172;54;21131;-40
2022/10/14 05:31:40;;;;;;;49.22;41.45;;;23.00;60.90;;;;;;4808869;54;21003;-37
2022/10/14 05:36:41;;;;;;;46.78;39.92;;;23.00;60.90;;;;;;4794465;58;21063;-37
2022/10/14 05:41:42;;;;;;;48.87;39.95;;;23.00;61.00;;;;;;4795594;58;20996;-31
2022/10/14 05:46:42;;;;;;;47.30;40.25;;;23.00;60.90;;;;;;4815674;54;21084;-26
2022/10/14 05:51:43;;;;;;;48.53;40.10;;;23.00;60.90;;;;;;4810968;54;21461;-35
2022/10/14 05:56:44;;;;;;;49.05;40.65;;;23.00;61.00;;;;;;4798796;54;21074;-28
2022/10/14 06:01:45;;;;;;;49.45;40.67;;;23.30;61.20;;;;;;4812246;54;21028;-37
2022/10/14 06:06:46;;;;;;;49.53;41.63;;;23.00;61.00;;;;;;4850755;54;21063;-34
2022/10/14 06:11:47;;;;;;;47.62;39.78;;;23.00;61.00;;;;;;4800105;54;21112;-31
2022/10/14 06:16:51;;;;;;;50.20;40.33;;;23.00;61.00;;;;;;4814212;54;21616;-30
2022/10/14 06:21:52;;;;;;;47.50;38.75;;;23.00;61.00;;;;;;4803252;54;21008;-36
2022/10/14 06:26:52;;;;;;;48.90;40.45;;;23.00;61.00;;;;;;4863933;54;21007;-37
2022/10/14 06:31:53;;;;;;;46.53;38.33;;;23.00;61.00;;;;;;4795289;55;21008;-32
2022/10/14 06:36:54;;;;;;;49.30;39.78;;;23.20;61.10;;;;;;4803886;54;21039;-29
2022/10/14 06:41:56;;;;;;;51.20;41.50;;;23.00;61.00;;;;;;4805076;54;21000;-26
2022/10/14 06:46:57;;;;;;;49.88;41.50;;;23.00;61.00;;;;;;4808490;54;21016;-33
2022/10/14 06:51:58;;;;;;;48.08;40.00;;;23.00;61.10;;;;;;4794123;55;21063;-35
2022/10/14 06:56:59;;;;;;;54.95;45.05;;;23.00;61.10;;;;;;4794016;54;21060;-36
2022/10/14 07:01:59;;;;;;;57.62;46.88;;;23.10;61.30;;;;;;4808852;54;21027;-30
2022/10/14 07:07:01;;;;;;;61.03;48.53;;;23.20;61.20;;;;;;4793058;58;21079;-34
2022/10/14 07:12:02;;;;;;;61.35;48.80;;;23.20;61.10;;;;;;4812257;54;21047;-37
2022/10/14 07:17:03;;;;;;;64.37;49.80;;;23.20;61.10;;;;;;4820322;54;21035;-36
2022/10/14 07:22:04;;;;;;;69.95;53.25;;;23.20;61.10;;;;;;4814873;54;21041;-28
2022/10/14 07:27:08;;;;;;;70.40;52.67;;;23.20;61.10;;;;;;4795665;54;21334;-28
2022/10/14 07:32:08;;;;;;;75.65;55.20;;;23.30;60.90;;;;;;4814685;54;20988;-33
2022/10/14 07:37:09;;;;;;;79.60;57.28;;;23.30;60.90;;;;;;4862649;54;21537;-26
2022/10/14 07:42:10;;;;;;;81.47;60.00;;;23.30;60.90;;;;;;4806009;54;21031;-31
2022/10/14 07:47:11;;;;;;;85.82;60.55;;;23.30;61.00;;;;;;4806125;54;21095;-34
2022/10/14 07:52:14;;;;;;;86.68;62.42;;;23.30;61.10;;;;;;4806283;54;20996;-30
2022/10/14 07:57:15;;;;;;;90.30;63.08;;;23.40;61.40;;;;;;4805700;54;21569;-33
2022/10/14 08:02:16;;;;;;;94.70;63.92;;;23.40;61.40;;;;;;4820243;54;21498;-32
2022/10/14 08:07:17;;;;;;;95.20;66.40;;;23.50;61.60;;;;;;4804748;54;21538;-33
2022/10/14 08:12:19;;;;;;;90.38;65.60;;;23.50;61.60;;;;;;4849469;54;21225;-28
2022/10/14 08:17:20;;;;;;;102.22;71.05;;;23.50;62.20;;;;;;4835255;54;21047;-28
2022/10/14 08:22:21;;;;;;;100.18;72.15;;;23.60;61.40;;;;;;4797660;54;21082;-28
2022/10/14 08:27:21;;;;;;;97.62;72.72;;;23.50;61.20;;;;;;4831636;54;20991;-31
2022/10/14 08:32:22;;;;;;;100.40;72.62;;;23.50;61.20;;;;;;4796132;58;21474;-32
2022/10/14 08:37:23;;;;;;;99.72;73.12;;;23.50;61.50;;;;;;4794243;58;21103;-28
2022/10/14 08:42:36;;;;;;;102.68;75.57;;;23.50;60.80;;;;;;4802572;54;21000;-29
2022/10/14 08:47:43;;;;;;;102.82;75.65;;;23.50;60.60;;;;;;4792714;58;21028;-31
2022/10/14 08:52:50;;;;;;;103.28;73.50;;;23.60;60.70;;;;;;4795520;54;21034;-27
2022/10/14 08:57:56;;;;;;;101.38;74.68;;;23.50;60.60;;;;;;4818342;54;20999;-27
2022/10/14 09:03:01;;;;;;;104.97;79.33;;;23.60;60.90;;;;;;4839768;54;21048;-35
2022/10/14 09:08:02;;;;;;;102.25;76.78;;;23.60;61.00;;;;;;4830159;54;21083;-35
2022/10/14 09:16:44;;;;;;;111.45;81.87;;;23.60;61.10;;;;;;4827122;54;21075;-35
2022/10/14 09:21:50;;;;;;;111.82;84.13;;;23.70;61.20;;;;;;4799136;54;21485;-32
2022/10/14 09:27:02;;;;;;;114.97;86.45;;;23.70;61.30;;;;;;4795092;58;21060;-36
2022/10/14 09:32:06;;;;;;;110.75;84.30;;;23.70;61.30;;;;;;4807595;54;21000;-34
2022/10/14 09:37:36;;;;;;;120.25;87.43;;;23.70;61.40;;;;;;4840643;54;21114;-30
2022/10/14 09:43:31;;;;;;;113.45;85.40;;;23.80;61.50;;;;;;4795892;54;21118;-27
2022/10/14 09:48:51;;;;;;;114.60;86.23;;;23.80;61.40;;;;;;4796558;55;21486;-29
2022/10/14 09:53:54;;;;;;;115.90;85.03;;;23.80;61.90;;;;;;4805613;54;21068;-30
2022/10/14 09:58:56;;;;;;;120.60;88.12;;;23.80;61.90;;;;;;4816414;54;21047;-32
2022/10/14 10:04:46;;;;;;;112.70;84.85;;;23.80;62.00;;;;;;4820882;54;21032;-32
2022/10/14 10:09:54;;;;;;;120.65;90.25;;;23.80;62.00;;;;;;4811466;54;21698;-36
2022/10/14 10:15:02;;;;;;;112.25;86.05;;;23.90;62.20;;;;;;4800195;54;21059;-36
2022/10/14 10:20:31;;;;;;;149.62;108.15;;;23.90;62.30;;;;;;4814405;54;21645;-29
2022/10/14 10:25:32;;;;;;;139.88;101.97;;;23.80;58.80;;;;;;4795287;55;21514;-29
2022/10/14 10:30:47;;;;;;;129.93;98.70;;;23.70;58.60;;;;;;4798811;54;21020;-31
2022/10/14 10:36:52;;;;;;;137.15;102.82;;;23.60;58.70;;;;;;4795665;54;21589;-31
2022/10/14 10:42:23;;;;;;;143.05;106.43;;;23.50;58.30;;;;;;4796985;54;21079;-32
2022/10/14 10:47:58;;;;;;;192.90;144.65;;;23.40;59.50;;;;;;4819470;54;21040;-30
2022/10/14 10:59:05;;;;;;;178.90;130.37;;;23.50;58.70;;;;;;4801625;54;21454;-33
2022/10/14 11:04:34;;;;;;;158.82;112.50;;;23.40;58.80;;;;;;4817309;54;21545;-28
2022/10/14 11:16:54;;;;;;;162.23;116.43;;;23.40;58.70;;;;;;4820573;54;21100;-30
2022/10/14 11:24:59;;;;;;;157.15;111.82;;;23.40;58.70;;;;;;4794742;58;21119;-31
2022/10/14 11:30:19;;;;;;;147.77;105.80;;;23.40;59.30;;;;;;4818594;54;21078;-26
2022/10/14 11:38:37;;;;;;;140.85;97.28;;;23.50;59.20;;;;;;4793857;58;21071;-30
2022/10/14 11:44:33;;;;;;;135.12;96.97;;;23.50;59.20;;;;;;4815832;54;21004;-28
2022/10/14 11:50:29;;;;;;;129.80;93.97;;;23.50;59.10;;;;;;4823565;54;21003;-32
2022/10/14 11:55:37;;;;;;;123.82;91.30;;;23.50;59.10;;;;;;4816090;54;21048;-32
2022/10/14 12:00:41;;;;;;;116.37;87.37;;;23.60;59.10;;;;;;4820984;54;21672;-33
2022/10/14 12:06:03;;;;;;;115.37;88.32;;;23.60;59.30;;;;;;4802866;54;21015;-28
2022/10/14 12:11:58;;;;;;;120.80;90.12;;;23.60;59.30;;;;;;4809428;54;21044;-29
2022/10/14 12:17:04;;;;;;;117.32;89.70;;;23.60;59.40;;;;;;4825653;54;21115;-30
2022/10/14 12:22:22;;;;;;;116.93;88.70;;;23.60;59.50;;;;;;4815475;54;20996;-32
2022/10/14 12:27:25;;;;;;;124.43;93.60;;;23.70;59.70;;;;;;4804490;54;21411;-30
2022/10/14 12:32:29;;;;;;;121.53;88.47;;;23.70;59.70;;;;;;4801036;54;21004;-30
2022/10/14 12:37:41;;;;;;;120.65;90.60;;;23.70;59.80;;;;;;4803524;54;21071;-31
2022/10/14 12:43:58;;;;;;;119.05;88.93;;;23.70;59.80;;;;;;4845774;54;21103;-33
2022/10/14 12:48:59;;;;;;;116.60;85.78;;;23.70;60.20;;;;;;4818230;54;21557;-26
2022/10/14 12:54:14;;;;;;;108.95;80.90;;;23.70;60.00;;;;;;4805755;54;21008;-27
2022/10/14 12:59:24;;;;;;;105.97;80.35;;;23.70;60.00;;;;;;4820944;54;21024;-29
2022/10/14 13:04:26;;;;;;;104.30;76.72;;;23.70;60.00;;;;;;4807391;54;21462;-26
2022/10/14 13:09:33;;;;;;;102.60;75.68;;;23.70;60.00;;;;;;4795110;58;21577;-34
2022/10/14 13:14:59;;;;;;;100.93;74.00;;;23.70;60.00;;;;;;4797391;54;20988;-31
2022/10/14 13:20:00;;;;;;;99.53;73.82;;;23.70;60.00;;;;;;4802727;54;21024;-26
2022/10/14 13:25:15;;;;;;;94.82;69.07;;;23.80;60.00;;;;;;4807199;54;21493;-34
2022/10/14 13:30:33;;;;;;;86.82;66.18;;;23.80;59.90;;;;;;4812438;54;21036;-29
2022/10/14 13:36:44;;;;;;;87.88;65.80;;;23.80;59.90;;;;;;4796917;54;21048;-30
2022/10/14 13:41:46;;;;;;;82.32;64.40;;;23.80;59.80;;;;;;4798393;54;21118;-27
2022/10/14 13:46:48;;;;;;;82.88;64.87;;;23.80;59.80;;;;;;4794487;54;21515;-35
2022/10/14 13:51:56;;;;;;;80.35;61.75;;;23.80;59.80;;;;;;4794969;54;21102;-28
2022/10/14 13:57:12;;;;;;;79.90;62.60;;;23.80;59.70;;;;;;4791066;55;21011;-31
2022/10/14 14:02:26;;;;;;;82.90;61.55;;;23.70;59.80;;;;;;4794090;54;21202;-31
2022/10/14 14:07:34;;;;;;;76.37;60.28;;;23.70;59.90;;;;;;4804698;54;20984;-30
2022/10/14 14:12:35;;;;;;;72.93;59.28;;;23.70;60.00;;;;;;4858459;54;21047;-33
2022/10/14 14:17:37;;;;;;;74.78;56.00;;;23.70;60.00;;;;;;4799625;54;21482;-31
2022/10/14 14:22:45;;;;;;;73.90;58.25;;;23.60;60.00;;;;;;4821434;54;21048;-33
2022/10/14 14:27:54;;;;;;;72.80;57.75;;;23.60;60.20;;;;;;4821037;54;21550;-32
2022/10/14 14:32:59;;;;;;;75.25;58.20;;;23.60;60.10;;;;;;4795327;58;21067;-26
2022/10/14 14:38:00;;;;;;;70.18;57.25;;;23.60;60.20;;;;;;4802031;54;21036;-28
2022/10/14 14:43:03;;;;;;;75.78;58.58;;;23.50;60.20;;;;;;4795445;58;21003;-30
2022/10/14 14:48:06;;;;;;;71.12;56.53;;;23.50;60.30;;;;;;4818884;54;21071;-26
2022/10/14 14:53:19;;;;;;;72.25;57.20;;;23.50;60.30;;;;;;4838024;54;21007;-35
2022/10/14 14:58:46;;;;;;;68.70;55.10;;;23.50;60.30;;;;;;4808642;54;21055;-28
2022/10/14 15:03:57;;;;;;;69.20;56.47;;;23.50;60.40;;;;;;4806600;54;21454;-26
2022/10/14 15:09:12;;;;;;;72.18;56.03;;;23.50;60.40;;;;;;4814250;54;21132;-27
2022/10/14 15:14:47;;;;;;;68.20;55.58;;;23.50;60.40;;;;;;4842874;54;21067;-28
2022/10/14 15:19:48;;;;;;;70.60;55.97;;;23.50;60.50;;;;;;4793600;58;21586;-31
2022/10/14 15:25:38;;;;;;;64.22;54.63;;;23.50;60.60;;;;;;4816393;54;21537;-28
2022/10/14 15:30:52;;;;;;;68.85;55.88;;;23.50;60.50;;;;;;4795838;54;21033;-31
2022/10/14 15:35:55;;;;;;;72.35;56.78;;;23.50;60.60;;;;;;4870472;54;21589;-30
2022/10/14 15:40:56;;;;;;;68.65;55.28;;;23.50;60.60;;;;;;4819600;54;21189;-30
2022/10/14 15:51:20;;;;;;;64.20;52.55;;;23.60;60.70;;;;;;4809093;54;21028;-35
2022/10/14 15:56:21;;;;;;;67.43;53.55;;;23.50;60.60;;;;;;4822480;54;21024;-33
2022/10/14 16:01:22;;;;;;;64.50;53.38;;;23.50;60.60;;;;;;4797411;54;21141;-27
2022/10/14 16:06:24;;;;;;;68.25;54.60;;;23.50;60.60;;;;;;4795757;58;21467;-29
2022/10/14 16:11:27;;;;;;;63.42;52.22;;;23.50;60.80;;;;;;4795537;54;21028;-29
2022/10/14 16:16:35;;;;;;;64.78;53.95;;;23.50;60.60;;;;;;4812714;54;21012;-28
2022/10/14 16:21:37;;;;;;;65.70;54.17;;;23.50;60.70;;;;;;4837428;54;20980;-28
2022/10/14 16:26:38;;;;;;;65.15;52.22;;;23.40;60.60;;;;;;4824566;54;22227;-33
2022/10/14 16:31:39;;;;;;;63.78;52.20;;;23.70;60.90;;;;;;4821066;54;21027;-32
2022/10/14 16:36:40;;;;;;;64.80;51.42;;;23.40;60.70;;;;;;4811939;54;21148;-28
2022/10/14 16:41:42;;;;;;;61.28;52.17;;;23.50;60.80;;;;;;4799418;54;22315;-29
2022/10/14 16:52:02;;;;;;;63.90;52.40;;;23.40;60.80;;;;;;4795287;54;21075;-32
2022/10/14 16:57:04;;;;;;;63.58;52.28;;;23.40;60.70;;;;;;4822323;54;21083;-30
2022/10/14 17:02:09;;;;;;;58.38;50.15;;;23.40;60.80;;;;;;4797012;54;21031;-29
2022/10/14 17:07:11;;;;;;;60.60;51.30;;;23.40;60.80;;;;;;4821358;54;21540;-26
2022/10/14 17:12:12;;;;;;;60.58;51.42;;;23.50;60.80;;;;;;4803933;54;21008;-30
2022/10/14 17:17:13;;;;;;;60.25;52.20;;;23.40;61.50;;;;;;4795065;58;21048;-30
2022/10/14 17:22:17;;;;;;;62.67;51.08;;;23.40;60.90;;;;;;4798203;54;21030;-30
2022/10/14 17:27:21;;;;;;;62.25;52.10;;;23.60;61.00;;;;;;4795816;58;21060;-33
2022/10/14 17:32:22;;;;;;;59.38;50.95;;;23.40;61.00;;;;;;4797535;54;21597;-30
2022/10/14 17:37:22;;;;;;;60.83;49.70;;;23.40;60.90;;;;;;4815096;54;21087;-27
2022/10/14 17:42:23;;;;;;;64.60;51.60;;;23.40;60.90;;;;;;4818747;54;20984;-26
2022/10/14 17:47:25;;;;;;;60.08;49.72;;;23.40;61.00;;;;;;4795926;58;21040;-26
2022/10/14 17:52:26;;;;;;;62.40;52.50;;;23.40;61.10;;;;;;4818089;54;21569;-28
2022/10/14 17:57:27;;;;;;;63.08;51.75;;;23.40;61.10;;;;;;4808271;54;21020;-27
2022/10/14 18:02:28;;;;;;;65.35;54.55;;;23.40;61.10;;;;;;4824171;54;21016;-26
2022/10/14 18:07:28;;;;;;;66.85;54.05;;;23.40;61.10;;;;;;4838690;54;21004;-31
2022/10/14 18:12:30;;;;;;;66.20;52.83;;;23.40;61.10;;;;;;4819786;54;21485;-32
2022/10/14 18:17:31;;;;;;;65.95;53.87;;;23.40;61.10;;;;;;4799859;54;21007;-27
2022/10/14 18:22:32;;;;;;;63.15;52.40;;;23.40;61.10;;;;;;4816091;54;21079;-29
2022/10/14 18:27:32;;;;;;;61.63;51.67;;;23.40;61.10;;;;;;4857070;54;21060;-35
2022/10/14 18:32:36;;;;;;;67.25;53.85;;;23.40;61.30;;;;;;4797588;54;21111;-30
2022/10/14 18:37:37;;;;;;;69.53;55.55;;;23.30;61.10;;;;;;4802025;54;21585;-31
2022/10/14 18:42:38;;;;;;;66.12;54.92;;;23.30;61.10;;;;;;4800970;54;21011;-34
2022/10/14 18:47:38;;;;;;;68.15;55.42;;;23.30;61.10;;;;;;4797240;54;21003;-28
2022/10/14 18:52:40;;;;;;;65.65;53.85;;;23.30;61.10;;;;;;4813809;54;21020;-26
2022/10/14 18:57:41;;;;;;;65.20;52.90;;;23.60;61.30;;;;;;4855668;54;21016;-29
2022/10/14 19:02:42;;;;;;;67.12;55.42;;;23.30;61.10;;;;;;4818825;54;21016;-27
2022/10/14 19:07:42;;;;;;;69.40;55.25;;;23.30;61.10;;;;;;4796036;58;21490;-25
2022/10/14 19:12:43;;;;;;;68.32;56.63;;;23.30;61.10;;;;;;4805878;54;21064;-28
2022/10/14 19:17:51;;;;;;;66.85;54.83;;;23.40;61.10;;;;;;4848122;54;21068;-25
2022/10/14 19:22:51;;;;;;;67.55;55.53;;;23.30;61.00;;;;;;4803638;54;22026;-35
2022/10/14 19:27:52;;;;;;;66.43;56.35;;;23.30;61.10;;;;;;4835708;54;21027;-33
2022/10/14 19:32:53;;;;;;;66.62;54.83;;;23.40;61.10;;;;;;4816063;54;21008;-27
2022/10/14 19:37:54;;;;;;;67.45;56.10;;;23.30;61.00;;;;;;4794825;58;21003;-32
2022/10/14 19:42:55;;;;;;;67.78;54.78;;;23.30;60.90;;;;;;4834190;54;21078;-26
2022/10/14 19:47:56;;;;;;;67.25;55.70;;;23.30;61.00;;;;;;4898049;54;21019;-32
2022/10/14 19:52:56;;;;;;;68.18;55.90;;;23.30;60.90;;;;;;4838447;54;21079;-34
2022/10/14 19:57:57;;;;;;;66.35;54.45;;;23.30;60.80;;;;;;4826073;54;21780;-28
2022/10/14 20:02:58;;;;;;;66.35;53.30;;;23.30;60.80;;;;;;4795242;58;21586;-33
2022/10/14 20:08:00;;;;;;;63.25;50.90;;;23.30;60.80;;;;;;4794775;58;21083;-27
2022/10/14 20:13:01;;;;;;;65.57;54.70;;;23.30;60.80;;;;;;4811063;54;21533;-34
2022/10/14 20:18:02;;;;;;;63.50;52.17;;;23.30;60.90;;;;;;4818609;54;21079;-31
2022/10/14 20:23:03;;;;;;;68.85;56.58;;;23.30;61.40;;;;;;4838031;54;21035;-29
2022/10/14 20:28:03;;;;;;;65.97;52.72;;;23.30;60.70;;;;;;4813599;54;21039;-25
2022/10/14 20:33:05;;;;;;;66.00;54.53;;;23.30;60.60;;;;;;4814929;54;21051;-27
2022/10/14 20:38:06;;;;;;;69.93;56.72;;;23.30;60.60;;;;;;4813750;54;21122;-32
2022/10/14 20:43:06;;;;;;;65.37;53.72;;;23.40;60.60;;;;;;4798934;54;21047;-28
2022/10/14 20:48:07;;;;;;;63.63;54.05;;;23.30;60.50;;;;;;4795846;58;21470;-30
2022/10/14 20:53:08;;;;;;;65.00;52.75;;;23.20;60.50;;;;;;4795354;58;21550;-29
2022/10/14 20:58:09;;;;;;;66.07;53.40;;;23.30;60.50;;;;;;4813615;54;21008;-31
2022/10/14 21:03:10;;;;;;;67.47;54.17;;;23.20;60.40;;;;;;4833525;54;21569;-29
2022/10/14 21:08:10;;;;;;;63.35;51.83;;;23.20;60.40;;;;;;4846715;54;20995;-32
2022/10/14 21:13:11;;;;;;;62.50;52.53;;;23.20;60.30;;;;;;4816177;54;21130;-27
2022/10/14 21:18:12;;;;;;;65.65;52.35;;;23.20;60.30;;;;;;4796105;54;21003;-28
2022/10/14 21:23:13;;;;;;;61.90;51.58;;;23.20;60.30;;;;;;4810152;54;20996;-25
2022/10/14 21:28:16;;;;;;;65.20;52.85;;;23.20;60.20;;;;;;4803130;54;21036;-28
2022/10/14 21:33:17;;;;;;;63.75;51.17;;;23.20;60.10;;;;;;4796038;54;21090;-34
2022/10/14 21:38:18;;;;;;;62.30;50.58;;;23.20;60.10;;;;;;4806599;54;21051;-34
2022/10/14 21:43:19;;;;;;;63.97;51.17;;;23.20;60.10;;;;;;4795171;58;21028;-30
2022/10/14 21:48:21;;;;;;;59.65;49.88;;;23.20;60.10;;;;;;4817873;54;21059;-27
2022/10/14 21:53:22;;;;;;;62.38;51.47;;;23.20;60.10;;;;;;4875578;54;21040;-32
2022/10/14 21:58:23;;;;;;;60.35;48.08;;;23.20;60.00;;;;;;4828854;54;21023;-27
2022/10/14 22:03:24;;;;;;;62.95;50.88;;;23.20;60.00;;;;;;4821743;54;21150;-33
2022/10/14 22:08:28;;;;;;;59.53;49.40;;;23.20;59.90;;;;;;4799280;54;20988;-33
2022/10/14 22:13:30;;;;;;;59.92;48.20;;;23.20;60.60;;;;;;4809650;54;21075;-29
2022/10/14 22:18:31;;;;;;;57.70;47.90;;;23.20;59.90;;;;;;4807922;54;21028;-29
2022/10/14 22:23:32;;;;;;;59.53;47.45;;;23.20;59.90;;;;;;4795929;54;21111;-27
2022/10/14 22:28:34;;;;;;;58.40;47.95;;;23.20;59.90;;;;;;4795724;58;21027;-32
2022/10/14 22:33:36;;;;;;;58.50;47.58;;;23.20;59.90;;;;;;4816213;54;21534;-37
2022/10/14 22:38:39;;;;;;;56.13;46.80;;;23.20;59.80;;;;;;4802681;54;21497;-26
2022/10/14 22:43:48;;;;;;;56.22;46.63;;;23.20;59.80;;;;;;4815824;54;21055;-30
2022/10/14 22:48:54;;;;;;;60.05;46.58;;;23.20;59.80;;;;;;4871065;54;21505;-32
2022/10/14 22:53:55;;;;;;;55.47;45.80;;;23.20;59.80;;;;;;4808579;54;21060;-32
2022/10/14 22:59:06;;;;;;;56.20;46.05;;;23.20;59.80;;;;;;4823667;54;21008;-35
2022/10/14 23:04:08;;;;;;;57.00;46.78;;;23.20;59.70;;;;;;4843597;54;20987;-28
2022/10/14 23:09:08;;;;;;;58.20;46.85;;;23.20;59.70;;;;;;4820560;54;21043;-31
2022/10/14 23:14:09;;;;;;;51.88;43.35;;;23.20;59.60;;;;;;4799242;54;21568;-31
2022/10/14 23:19:10;;;;;;;56.25;45.28;;;23.20;59.70;;;;;;4794531;58;21119;-28
2022/10/14 23:24:13;;;;;;;53.28;44.70;;;23.20;59.60;;;;;;4834888;54;21011;-27
2022/10/14 23:29:14;;;;;;;54.47;43.78;;;23.20;59.60;;;;;;4798760;54;21059;-33
2022/10/14 23:34:15;;;;;;;53.20;43.60;;;23.20;59.60;;;;;;4889498;54;21028;-34
2022/10/14 23:39:16;;;;;;;49.85;41.92;;;23.20;59.60;;;;;;4794439;58;21077;-33
2022/10/14 23:44:17;;;;;;;51.97;42.33;;;23.20;59.50;;;;;;4820503;54;21035;-28
2022/10/14 23:49:17;;;;;;;53.55;43.00;;;23.20;59.50;;;;;;4814706;54;21003;-30
2022/10/14 23:54:18;;;;;;;48.42;41.05;;;23.20;59.50;;;;;;4807234;54;21506;-26
2022/10/14 23:59:20;;;;;;;50.17;40.35;;;23.20;59.40;;;;;;4798174;54;21493;-26
